createdAt,value
2023-04-25T00:00:31.358Z,79.74
2023-04-25T00:01:31.380Z,79.74
2023-04-25T00:02:31.440Z,80.02
2023-04-25T00:03:31.624Z,79.55
2023-04-25T00:04:31.904Z,79.83
2023-04-25T00:05:31.527Z,79.74
2023-04-25T00:06:31.534Z,79.74
2023-04-25T00:07:31.555Z,79.93
2023-04-25T00:08:31.582Z,79.55
2023-04-25T00:09:31.617Z,79.64
2023-04-25T00:10:31.638Z,79.55
2023-04-25T00:11:31.673Z,79.74
2023-04-25T00:12:31.733Z,79.46
2023-04-25T00:13:31.731Z,79.64
2023-04-25T00:14:31.762Z,79.17
2023-04-25T00:15:31.788Z,78.88
2023-04-25T00:16:31.883Z,78.88
2023-04-25T00:17:31.888Z,79.36
2023-04-25T00:18:31.884Z,78.59
2023-04-25T00:19:31.907Z,78.69
2023-04-25T00:20:31.958Z,78.41
2023-04-25T00:21:31.972Z,78.41
2023-04-25T00:22:32.013Z,78.03
2023-04-25T00:23:32.028Z,78.22
2023-04-25T00:24:32.067Z,78.22
2023-04-25T00:25:32.092Z,78.69
2023-04-25T00:26:32.121Z,78.03
2023-04-25T00:27:32.166Z,78.22
2023-04-25T00:28:32.180Z,77.74
2023-04-25T00:29:32.204Z,77.74
2023-04-25T00:30:32.241Z,76.79
2023-04-25T00:31:32.300Z,76.98
2023-04-25T00:32:32.347Z,76.69
2023-04-25T00:33:32.330Z,76.79
2023-04-25T00:34:32.368Z,76.88
2023-04-25T00:35:32.384Z,76.79
2023-04-25T00:36:32.428Z,76.88
2023-04-25T00:37:32.443Z,76.50
2023-04-25T00:38:32.471Z,76.98
2023-04-25T00:39:32.502Z,76.59
2023-04-25T00:40:32.542Z,76.79
2023-04-25T00:41:32.561Z,76.69
2023-04-25T00:42:32.593Z,76.69
2023-04-25T00:43:32.629Z,76.88
2023-04-25T00:44:32.652Z,76.59
2023-04-25T00:45:32.684Z,76.69
2023-04-25T00:46:32.741Z,76.69
2023-04-25T00:47:32.781Z,76.79
2023-04-25T00:48:32.771Z,76.69
2023-04-25T00:49:32.813Z,76.79
2023-04-25T00:50:32.829Z,76.88
2023-04-25T00:51:32.857Z,76.98
2023-04-25T00:52:32.985Z,76.98
2023-04-25T00:53:32.915Z,76.69
2023-04-25T00:54:32.970Z,76.88
2023-04-25T00:55:32.978Z,76.98
2023-04-25T00:56:33.008Z,76.88
2023-04-25T00:57:33.037Z,76.79
2023-04-25T00:58:33.066Z,76.79
2023-04-25T00:59:33.109Z,76.59
2023-04-25T01:00:33.166Z,76.59
2023-04-25T01:01:33.161Z,76.88
2023-04-25T01:02:33.318Z,76.59
2023-04-25T01:03:33.349Z,76.98
2023-04-25T01:04:33.324Z,76.98
2023-04-25T01:05:33.279Z,76.59
2023-04-25T01:06:33.312Z,76.98
2023-04-25T01:07:33.333Z,76.59
2023-04-25T01:08:33.371Z,76.79
2023-04-25T01:09:33.401Z,76.79
2023-04-25T01:10:33.438Z,76.98
2023-04-25T01:11:33.455Z,77.07
2023-04-25T01:12:33.484Z,76.98
2023-04-25T01:13:33.512Z,76.88
2023-04-25T01:14:33.542Z,76.69
2023-04-25T01:15:33.568Z,76.69
2023-04-25T01:16:33.646Z,76.59
2023-04-25T01:17:33.663Z,77.17
2023-04-25T01:18:33.661Z,77.17
2023-04-25T01:19:33.690Z,76.98
2023-04-25T01:20:33.719Z,76.88
2023-04-25T01:21:33.749Z,76.88
2023-04-25T01:22:33.777Z,77.17
2023-04-25T01:23:33.812Z,76.88
2023-04-25T01:24:33.847Z,77.64
2023-04-25T01:25:33.875Z,77.45
2023-04-25T01:26:33.900Z,76.98
2023-04-25T01:27:33.928Z,76.98
2023-04-25T01:28:33.974Z,76.59
2023-04-25T01:29:33.988Z,77.07
2023-04-25T01:30:34.020Z,76.59
2023-04-25T01:31:34.155Z,76.88
2023-04-25T01:32:34.114Z,76.79
2023-04-25T01:33:34.109Z,76.88
2023-04-25T01:34:34.136Z,76.69
2023-04-25T01:35:34.165Z,76.98
2023-04-25T01:36:34.196Z,76.69
2023-04-25T01:37:34.222Z,76.98
2023-04-25T01:38:34.244Z,76.69
2023-04-25T01:39:34.272Z,76.59
2023-04-25T01:40:34.319Z,76.69
2023-04-25T01:41:34.336Z,76.21
2023-04-25T01:42:34.362Z,76.40
2023-04-25T01:43:34.391Z,76.79
2023-04-25T01:44:34.433Z,76.69
2023-04-25T01:45:34.455Z,76.88
2023-04-25T01:46:34.601Z,76.69
2023-04-25T01:47:34.581Z,76.69
2023-04-25T01:48:34.550Z,76.88
2023-04-25T01:49:34.577Z,76.69
2023-04-25T01:50:34.599Z,76.75
2023-04-25T01:51:34.626Z,76.94
2023-04-25T01:52:34.656Z,77.64
2023-04-25T01:53:34.688Z,77.64
2023-04-25T01:54:34.726Z,77.36
2023-04-25T01:55:34.745Z,77.36
2023-04-25T01:56:34.777Z,77.36
2023-04-25T01:57:34.813Z,77.36
2023-04-25T01:58:34.832Z,77.45
2023-04-25T01:59:34.870Z,77.55
2023-04-25T02:00:34.892Z,77.36
2023-04-25T02:01:34.948Z,77.17
2023-04-25T02:02:35.120Z,77.36
2023-04-25T02:03:35.181Z,77.55
2023-04-25T02:04:35.255Z,77.74
2023-04-25T02:05:35.115Z,77.45
2023-04-25T02:06:35.117Z,77.36
2023-04-25T02:07:35.100Z,77.80
2023-04-25T02:08:35.129Z,77.80
2023-04-25T02:09:35.158Z,77.89
2023-04-25T02:10:35.188Z,77.80
2023-04-25T02:11:35.219Z,78.37
2023-04-25T02:12:35.256Z,78.31
2023-04-25T02:13:35.295Z,78.41
2023-04-25T02:14:35.316Z,77.83
2023-04-25T02:15:35.379Z,77.74
2023-04-25T02:16:35.456Z,77.89
2023-04-25T02:17:35.430Z,77.74
2023-04-25T02:18:35.424Z,77.98
2023-04-25T02:19:35.481Z,78.17
2023-04-25T02:20:35.485Z,78.50
2023-04-25T02:21:35.517Z,78.41
2023-04-25T02:22:35.552Z,77.98
2023-04-25T02:23:35.577Z,78.27
2023-04-25T02:24:35.602Z,78.17
2023-04-25T02:25:35.637Z,77.89
2023-04-25T02:26:35.666Z,77.89
2023-04-25T02:27:35.709Z,77.80
2023-04-25T02:28:35.758Z,78.75
2023-04-25T02:29:35.756Z,78.46
2023-04-25T02:30:35.783Z,78.65
2023-04-25T02:31:35.826Z,78.59
2023-04-25T02:32:35.863Z,78.75
2023-04-25T02:33:35.881Z,78.56
2023-04-25T02:34:35.905Z,78.27
2023-04-25T02:35:35.931Z,78.37
2023-04-25T02:36:35.967Z,78.46
2023-04-25T02:37:36.008Z,78.56
2023-04-25T02:38:36.022Z,78.65
2023-04-25T02:39:36.048Z,78.75
2023-04-25T02:40:36.087Z,78.65
2023-04-25T02:41:36.110Z,78.65
2023-04-25T02:42:36.147Z,78.03
2023-04-25T02:43:36.166Z,77.80
2023-04-25T02:44:36.198Z,78.78
2023-04-25T02:45:36.283Z,78.03
2023-04-25T02:46:39.501Z,78.41
2023-04-25T02:47:36.299Z,78.17
2023-04-25T02:48:36.314Z,78.12
2023-04-25T02:49:36.345Z,78.17
2023-04-25T02:50:36.376Z,78.31
2023-04-25T02:51:36.403Z,78.31
2023-04-25T02:52:36.432Z,77.98
2023-04-25T02:53:36.462Z,78.31
2023-04-25T02:54:36.497Z,78.37
2023-04-25T02:55:36.563Z,78.65
2023-04-25T02:56:36.549Z,78.65
2023-04-25T02:57:36.585Z,78.65
2023-04-25T02:58:36.613Z,78.75
2023-04-25T02:59:36.640Z,78.22
2023-04-25T03:00:36.721Z,77.98
2023-04-25T03:01:36.696Z,78.50
2023-04-25T03:02:36.840Z,78.56
2023-04-25T03:03:36.799Z,78.59
2023-04-25T03:04:36.932Z,78.65
2023-04-25T03:05:36.819Z,78.56
2023-04-25T03:06:36.844Z,78.75
2023-04-25T03:07:36.877Z,78.65
2023-04-25T03:08:36.910Z,78.85
2023-04-25T03:09:36.933Z,78.69
2023-04-25T03:10:36.966Z,78.69
2023-04-25T03:11:36.998Z,78.59
2023-04-25T03:12:37.035Z,77.83
2023-04-25T03:13:37.059Z,78.03
2023-04-25T03:14:37.084Z,78.03
2023-04-25T03:15:37.132Z,78.41
2023-04-25T03:16:37.163Z,77.98
2023-04-25T03:17:37.205Z,77.89
2023-04-25T03:18:37.200Z,77.89
2023-04-25T03:19:37.230Z,78.65
2023-04-25T03:20:37.270Z,78.41
2023-04-25T03:21:37.302Z,77.83
2023-04-25T03:22:37.321Z,78.22
2023-04-25T03:23:37.349Z,77.83
2023-04-25T03:24:37.381Z,77.93
2023-04-25T03:25:37.448Z,78.69
2023-04-25T03:26:37.443Z,77.93
2023-04-25T03:27:37.477Z,78.37
2023-04-25T03:28:37.503Z,77.98
2023-04-25T03:29:37.526Z,78.75
2023-04-25T03:30:37.557Z,78.37
2023-04-25T03:31:37.609Z,78.65
2023-04-25T03:32:37.702Z,78.27
2023-04-25T03:33:37.646Z,78.46
2023-04-25T03:34:37.676Z,78.46
2023-04-25T03:35:37.705Z,78.85
2023-04-25T03:36:39.139Z,78.46
2023-04-25T03:37:37.767Z,78.65
2023-04-25T03:38:37.802Z,78.85
2023-04-25T03:39:37.828Z,78.75
2023-04-25T03:40:37.862Z,78.75
2023-04-25T03:41:37.886Z,78.75
2023-04-25T03:42:37.916Z,79.03
2023-04-25T03:43:37.947Z,79.03
2023-04-25T03:44:37.977Z,79.13
2023-04-25T03:45:38.052Z,78.85
2023-04-25T03:46:38.036Z,78.94
2023-04-25T03:47:38.091Z,78.94
2023-04-25T03:48:38.133Z,78.85
2023-04-25T03:49:38.122Z,78.75
2023-04-25T03:50:38.155Z,79.13
2023-04-25T03:51:38.177Z,79.13
2023-04-25T03:52:38.212Z,79.13
2023-04-25T03:53:38.254Z,78.94
2023-04-25T03:54:38.270Z,79.03
2023-04-25T03:55:38.309Z,78.65
2023-04-25T03:56:38.329Z,79.03
2023-04-25T03:57:38.359Z,78.75
2023-04-25T03:58:38.387Z,78.75
2023-04-25T03:59:38.426Z,78.94
2023-04-25T04:00:38.451Z,78.37
2023-04-25T04:01:38.475Z,78.65
2023-04-25T04:02:38.706Z,78.27
2023-04-25T04:03:39.185Z,78.46
2023-04-25T04:04:38.834Z,78.56
2023-04-25T04:05:38.615Z,79.22
2023-04-25T04:06:38.623Z,79.13
2023-04-25T04:07:38.706Z,79.03
2023-04-25T04:08:38.682Z,79.13
2023-04-25T04:09:38.714Z,79.22
2023-04-25T04:10:38.761Z,78.85
2023-04-25T04:11:38.778Z,78.85
2023-04-25T04:12:38.799Z,78.75
2023-04-25T04:13:38.831Z,78.46
2023-04-25T04:14:38.866Z,78.27
2023-04-25T04:15:38.908Z,78.85
2023-04-25T04:16:39.004Z,78.65
2023-04-25T04:17:38.956Z,78.75
2023-04-25T04:18:38.984Z,79.03
2023-04-25T04:19:39.014Z,79.22
2023-04-25T04:20:39.048Z,79.03
2023-04-25T04:21:39.071Z,79.03
2023-04-25T04:22:39.126Z,78.75
2023-04-25T04:23:39.978Z,78.65
2023-04-25T04:24:39.169Z,78.65
2023-04-25T04:25:39.181Z,79.22
2023-04-25T04:26:39.233Z,78.75
2023-04-25T04:27:46.479Z,78.94
2023-04-25T04:29:32.498Z,78.78
2023-04-25T04:30:32.466Z,78.37
2023-04-25T04:32:25.667Z,78.65
2023-04-25T04:33:25.663Z,78.46
2023-04-25T04:35:18.664Z,78.27
2023-04-25T04:36:18.682Z,78.65
2023-04-25T04:37:18.713Z,78.46
2023-04-25T04:38:18.736Z,78.46
2023-04-25T04:39:18.776Z,79.03
2023-04-25T04:40:18.795Z,78.65
2023-04-25T04:41:18.914Z,78.75
2023-04-25T04:42:18.845Z,78.75
2023-04-25T04:43:18.876Z,78.56
2023-04-25T04:44:18.914Z,79.13
2023-04-25T04:45:18.948Z,79.03
2023-04-25T04:46:19.063Z,79.13
2023-04-25T04:47:18.989Z,79.03
2023-04-25T04:48:19.025Z,78.88
2023-04-25T04:49:19.065Z,78.50
2023-04-25T04:50:19.083Z,78.69
2023-04-25T04:51:19.123Z,78.85
2023-04-25T04:52:19.153Z,77.93
2023-04-25T04:53:19.200Z,78.56
2023-04-25T04:54:19.230Z,78.56
2023-04-25T04:55:19.245Z,78.78
2023-04-25T04:56:19.282Z,78.98
2023-04-25T04:57:19.293Z,78.31
2023-04-25T04:58:19.576Z,78.56
2023-04-25T04:59:19.356Z,78.31
2023-04-25T05:00:19.375Z,78.69
2023-04-25T05:01:19.494Z,78.88
2023-04-25T05:02:19.518Z,78.37
2023-04-25T05:03:19.604Z,78.75
2023-04-25T05:04:19.695Z,78.85
2023-04-25T05:05:19.541Z,78.78
2023-04-25T05:06:19.560Z,78.46
2023-04-25T05:07:19.587Z,78.50
2023-04-25T05:08:19.627Z,78.69
2023-04-25T05:09:19.642Z,78.41
2023-04-25T05:10:19.681Z,78.27
2023-04-25T05:11:19.708Z,78.65
2023-04-25T05:12:19.742Z,79.03
2023-04-25T05:13:19.772Z,79.22
2023-04-25T05:14:19.812Z,79.27
2023-04-25T05:15:19.867Z,79.03
2023-04-25T05:16:19.872Z,78.98
2023-04-25T05:17:19.890Z,78.65
2023-04-25T05:18:22.387Z,79.27
2023-04-25T05:19:19.953Z,78.69
2023-04-25T05:20:20.020Z,78.88
2023-04-25T05:21:20.026Z,78.69
2023-04-25T05:22:20.049Z,78.78
2023-04-25T05:23:20.085Z,78.98
2023-04-25T05:24:20.097Z,78.69
2023-04-25T05:25:20.134Z,78.88
2023-04-25T05:26:20.192Z,78.98
2023-04-25T05:27:20.228Z,78.98
2023-04-25T05:28:20.217Z,78.69
2023-04-25T05:29:20.252Z,78.59
2023-04-25T05:30:20.283Z,78.98
2023-04-25T05:31:20.354Z,78.78
2023-04-25T05:32:20.464Z,79.22
2023-04-25T05:33:20.380Z,79.46
2023-04-25T05:34:20.396Z,79.32
2023-04-25T05:35:20.452Z,79.17
2023-04-25T05:36:20.460Z,79.27
2023-04-25T05:37:20.492Z,79.46
2023-04-25T05:38:20.546Z,79.46
2023-04-25T05:39:20.546Z,79.32
2023-04-25T05:40:20.571Z,79.64
2023-04-25T05:41:20.599Z,79.64
2023-04-25T05:42:20.633Z,79.64
2023-04-25T05:43:20.658Z,79.46
2023-04-25T05:44:20.694Z,79.07
2023-04-25T05:45:20.722Z,79.36
2023-04-25T05:46:20.783Z,79.07
2023-04-25T05:47:20.779Z,79.27
2023-04-25T05:48:20.844Z,79.46
2023-04-25T05:49:20.845Z,79.07
2023-04-25T05:50:20.866Z,79.46
2023-04-25T05:51:20.890Z,79.46
2023-04-25T05:52:20.935Z,79.55
2023-04-25T05:53:20.956Z,79.55
2023-04-25T05:54:20.986Z,79.74
2023-04-25T05:55:21.017Z,79.46
2023-04-25T05:56:21.051Z,79.55
2023-04-25T05:57:21.085Z,79.55
2023-04-25T05:58:21.104Z,79.46
2023-04-25T05:59:21.132Z,79.64
2023-04-25T06:00:21.157Z,80.31
2023-04-25T06:01:21.179Z,80.02
2023-04-25T06:02:21.352Z,80.22
2023-04-25T06:03:21.489Z,79.83
2023-04-25T06:04:21.612Z,79.83
2023-04-25T06:05:21.421Z,80.31
2023-04-25T06:06:21.354Z,80.22
2023-04-25T06:07:21.369Z,80.12
2023-04-25T06:08:21.401Z,79.55
2023-04-25T06:09:21.431Z,80.22
2023-04-25T06:10:21.463Z,80.41
2023-04-25T06:11:21.491Z,81.84
2023-04-25T06:12:21.531Z,83.55
2023-04-25T06:13:21.561Z,82.83
2023-04-25T06:14:21.625Z,82.17
2023-04-25T06:15:28.062Z,81.21
2023-04-25T06:16:21.715Z,80.44
2023-04-25T06:17:21.758Z,80.07
2023-04-25T06:18:21.697Z,79.78
2023-04-25T06:19:21.728Z,81.21
2023-04-25T06:20:21.761Z,80.26
2023-04-25T06:21:21.817Z,79.30
2023-04-25T06:22:21.825Z,79.21
2023-04-25T06:23:21.851Z,79.68
2023-04-25T06:24:21.878Z,79.68
2023-04-25T06:25:21.930Z,78.83
2023-04-25T06:26:21.923Z,79.02
2023-04-25T06:27:21.971Z,79.59
2023-04-25T06:28:21.995Z,79.78
2023-04-25T06:29:22.043Z,79.11
2023-04-25T06:30:22.050Z,79.30
2023-04-25T06:31:22.137Z,78.83
2023-04-25T06:32:22.261Z,79.21
2023-04-25T06:33:22.173Z,79.59
2023-04-25T06:34:22.179Z,79.49
2023-04-25T06:35:22.266Z,79.97
2023-04-25T06:36:22.253Z,80.16
2023-04-25T06:37:22.263Z,79.59
2023-04-25T06:38:22.309Z,79.02
2023-04-25T06:39:22.333Z,79.97
2023-04-25T06:40:22.359Z,79.11
2023-04-25T06:41:22.391Z,78.83
2023-04-25T06:42:22.426Z,78.73
2023-04-25T06:43:22.471Z,79.78
2023-04-25T06:44:22.480Z,79.21
2023-04-25T06:45:22.515Z,78.96
2023-04-25T06:46:22.599Z,78.67
2023-04-25T06:47:22.645Z,78.39
2023-04-25T06:48:22.604Z,77.97
2023-04-25T06:49:22.634Z,78.35
2023-04-25T06:50:22.671Z,79.11
2023-04-25T06:51:24.311Z,79.25
2023-04-25T06:52:22.717Z,78.64
2023-04-25T06:53:22.766Z,78.73
2023-04-25T06:54:22.794Z,78.83
2023-04-25T06:55:22.826Z,78.54
2023-04-25T06:56:22.853Z,78.44
2023-04-25T06:57:22.880Z,78.83
2023-04-25T06:58:22.894Z,79.30
2023-04-25T06:59:22.923Z,79.59
2023-04-25T07:00:22.973Z,79.02
2023-04-25T07:01:23.285Z,79.11
2023-04-25T07:02:23.168Z,79.49
2023-04-25T07:03:23.256Z,79.59
2023-04-25T07:04:23.231Z,79.68
2023-04-25T07:05:23.141Z,79.30
2023-04-25T07:06:23.162Z,79.68
2023-04-25T07:07:23.186Z,79.59
2023-04-25T07:08:23.239Z,79.97
2023-04-25T07:09:23.239Z,80.02
2023-04-25T07:10:23.276Z,79.93
2023-04-25T07:11:23.311Z,80.44
2023-04-25T07:12:23.369Z,79.88
2023-04-25T07:13:23.384Z,80.07
2023-04-25T07:14:23.453Z,80.54
2023-04-25T07:15:23.441Z,80.31
2023-04-25T07:16:23.521Z,80.79
2023-04-25T07:17:23.571Z,80.88
2023-04-25T07:18:23.513Z,80.79
2023-04-25T07:19:23.551Z,80.60
2023-04-25T07:20:23.577Z,81.46
2023-04-25T07:21:23.612Z,81.65
2023-04-25T07:22:23.641Z,81.55
2023-04-25T07:23:23.676Z,81.36
2023-04-25T07:24:23.713Z,81.46
2023-04-25T07:25:23.744Z,81.26
2023-04-25T07:26:23.774Z,80.79
2023-04-25T07:27:23.788Z,81.07
2023-04-25T07:28:23.838Z,80.22
2023-04-25T07:29:23.847Z,80.31
2023-04-25T07:30:23.912Z,80.22
2023-04-25T07:31:23.922Z,80.12
2023-04-25T07:32:24.345Z,78.98
2023-04-25T07:33:23.977Z,78.59
2023-04-25T07:34:24.004Z,78.59
2023-04-25T07:35:24.118Z,78.78
2023-04-25T07:36:24.104Z,78.98
2023-04-25T07:37:24.121Z,78.78
2023-04-25T07:38:24.120Z,78.88
2023-04-25T07:39:24.170Z,78.54
2023-04-25T07:40:24.199Z,78.73
2023-04-25T07:41:24.222Z,77.69
2023-04-25T07:42:24.237Z,77.49
2023-04-25T07:43:24.265Z,76.92
2023-04-25T07:44:24.322Z,76.79
2023-04-25T07:45:24.347Z,76.59
2023-04-25T07:46:24.445Z,76.79
2023-04-25T07:47:24.452Z,76.79
2023-04-25T07:48:24.450Z,76.69
2023-04-25T07:49:24.474Z,76.79
2023-04-25T07:50:24.536Z,76.88
2023-04-25T07:51:24.516Z,76.88
2023-04-25T07:52:24.553Z,77.64
2023-04-25T07:53:24.582Z,77.55
2023-04-25T07:54:24.605Z,77.59
2023-04-25T07:55:24.635Z,76.73
2023-04-25T07:56:24.670Z,76.92
2023-04-25T07:57:24.713Z,76.44
2023-04-25T07:58:24.722Z,75.87
2023-04-25T07:59:24.753Z,75.59
2023-04-25T08:00:24.788Z,75.59
2023-04-25T08:01:24.819Z,75.49
2023-04-25T08:02:24.866Z,75.20
2023-04-25T08:03:25.115Z,75.59
2023-04-25T08:04:25.119Z,75.20
2023-04-25T08:05:25.058Z,74.54
2023-04-25T08:06:25.142Z,74.35
2023-04-25T08:07:25.000Z,74.54
2023-04-25T08:08:25.017Z,74.06
2023-04-25T08:09:25.067Z,74.25
2023-04-25T08:10:25.090Z,73.77
2023-04-25T08:11:25.116Z,73.21
2023-04-25T08:12:25.180Z,72.44
2023-04-25T08:13:25.199Z,72.96
2023-04-25T08:14:25.216Z,72.82
2023-04-25T08:15:25.262Z,72.72
2023-04-25T08:16:25.401Z,72.06
2023-04-25T08:17:25.320Z,72.19
2023-04-25T08:18:25.404Z,72.25
2023-04-25T08:19:25.366Z,72.09
2023-04-25T08:20:25.395Z,72.19
2023-04-25T08:21:25.426Z,72.57
2023-04-25T08:22:25.462Z,72.48
2023-04-25T08:23:25.476Z,72.86
2023-04-25T08:24:25.521Z,73.14
2023-04-25T08:25:25.566Z,73.43
2023-04-25T08:26:25.631Z,72.96
2023-04-25T08:27:25.628Z,72.28
2023-04-25T08:28:25.634Z,71.33
2023-04-25T08:29:25.676Z,70.09
2023-04-25T08:30:25.696Z,69.62
2023-04-25T08:31:25.760Z,69.33
2023-04-25T08:32:25.763Z,68.85
2023-04-25T08:33:25.853Z,68.28
2023-04-25T08:34:25.819Z,68.57
2023-04-25T08:35:25.883Z,68.76
2023-04-25T08:36:38.629Z,68.66
2023-04-25T08:37:25.920Z,68.95
2023-04-25T08:38:25.938Z,68.85
2023-04-25T08:39:25.975Z,68.09
2023-04-25T08:40:26.010Z,67.04
2023-04-25T08:41:26.030Z,67.23
2023-04-25T08:42:26.061Z,66.94
2023-04-25T08:43:26.092Z,66.56
2023-04-25T08:44:26.138Z,66.09
2023-04-25T08:45:26.167Z,66.56
2023-04-25T08:46:26.240Z,66.66
2023-04-25T08:47:26.279Z,66.38
2023-04-25T08:48:26.254Z,66.75
2023-04-25T08:49:26.271Z,66.22
2023-04-25T08:50:26.301Z,66.22
2023-04-25T08:51:26.336Z,66.12
2023-04-25T08:52:26.366Z,65.20
2023-04-25T08:53:26.397Z,64.25
2023-04-25T08:54:34.312Z,63.48
2023-04-25T08:55:26.475Z,63.48
2023-04-25T08:56:26.568Z,63.48
2023-04-25T08:57:26.530Z,63.10
2023-04-25T08:58:26.553Z,62.34
2023-04-25T08:59:26.593Z,63.00
2023-04-25T09:00:26.599Z,62.91
2023-04-25T09:01:26.691Z,62.91
2023-04-25T09:02:26.777Z,62.24
2023-04-25T09:03:26.834Z,62.27
2023-04-25T09:04:26.777Z,59.98
2023-04-25T09:05:26.768Z,59.50
2023-04-25T09:06:26.894Z,59.12
2023-04-25T09:07:26.873Z,57.87
2023-04-25T09:08:26.888Z,57.97
2023-04-25T09:09:26.893Z,57.71
2023-04-25T09:10:26.926Z,57.43
2023-04-25T09:11:26.937Z,57.53
2023-04-25T09:12:26.967Z,56.76
2023-04-25T09:13:26.990Z,56.38
2023-04-25T09:14:27.099Z,56.18
2023-04-25T09:15:27.045Z,56.38
2023-04-25T09:16:27.121Z,56.09
2023-04-25T09:17:27.151Z,55.61
2023-04-25T09:19:38.765Z,58.19
2023-04-25T09:20:27.220Z,59.53
2023-04-25T09:21:27.247Z,60.99
2023-04-25T09:22:27.281Z,61.09
2023-04-25T09:23:27.327Z,60.13
2023-04-25T09:24:27.384Z,61.19
2023-04-25T09:25:27.369Z,58.70
2023-04-25T09:26:27.405Z,55.16
2023-04-25T09:27:27.452Z,53.34
2023-04-25T09:28:29.298Z,53.34
2023-04-25T09:29:27.510Z,54.21
2023-04-25T09:30:27.527Z,55.35
2023-04-25T09:31:27.608Z,58.98
2023-04-25T09:32:27.651Z,57.55
2023-04-25T09:33:27.637Z,56.21
2023-04-25T09:34:27.658Z,54.97
2023-04-25T09:35:27.703Z,55.74
2023-04-25T09:36:27.747Z,55.16
2023-04-25T09:37:27.761Z,54.39
2023-04-25T09:38:27.811Z,54.49
2023-04-25T09:39:27.829Z,54.39
2023-04-25T09:40:27.934Z,53.61
2023-04-25T09:41:27.873Z,52.75
2023-04-25T09:42:27.916Z,52.84
2023-04-25T09:43:27.965Z,52.46
2023-04-25T09:44:28.090Z,52.26
2023-04-25T09:45:28.013Z,51.70
2023-04-25T09:46:28.080Z,52.36
2023-04-25T09:47:28.124Z,51.89
2023-04-25T09:48:28.157Z,52.46
2023-04-25T09:49:28.160Z,52.43
2023-04-25T09:50:28.197Z,52.17
2023-04-25T09:51:28.218Z,51.38
2023-04-25T09:52:28.249Z,51.29
2023-04-25T09:53:28.277Z,50.71
2023-04-25T09:54:28.316Z,50.90
2023-04-25T09:55:28.349Z,51.19
2023-04-25T09:56:28.384Z,51.31
2023-04-25T09:57:28.416Z,51.12
2023-04-25T09:58:30.041Z,51.50
2023-04-25T09:59:28.485Z,51.43
2023-04-25T10:00:28.510Z,50.76
2023-04-25T10:01:28.586Z,50.57
2023-04-25T10:02:28.742Z,50.26
2023-04-25T10:03:28.732Z,50.57
2023-04-25T10:04:29.372Z,50.67
2023-04-25T10:05:28.680Z,50.86
2023-04-25T10:06:28.714Z,50.00
2023-04-25T10:07:28.735Z,50.64
2023-04-25T10:08:28.791Z,50.84
2023-04-25T10:09:28.770Z,50.48
2023-04-25T10:10:30.216Z,50.67
2023-04-25T10:11:28.878Z,50.35
2023-04-25T10:12:28.906Z,50.74
2023-04-25T10:13:28.952Z,49.69
2023-04-25T10:14:28.972Z,49.69
2023-04-25T10:15:29.045Z,49.69
2023-04-25T10:16:29.096Z,50.09
2023-04-25T10:17:29.152Z,50.76
2023-04-25T10:18:29.104Z,49.52
2023-04-25T10:19:29.136Z,49.02
2023-04-25T10:20:29.165Z,48.64
2023-04-25T10:21:29.177Z,48.35
2023-04-25T10:22:29.233Z,48.35
2023-04-25T10:23:29.270Z,48.73
2023-04-25T10:24:29.320Z,49.02
2023-04-25T10:25:29.324Z,49.21
2023-04-25T10:26:31.201Z,49.88
2023-04-25T10:27:29.400Z,50.35
2023-04-25T10:28:29.473Z,50.45
2023-04-25T10:29:29.460Z,49.78
2023-04-25T10:30:29.492Z,49.76
2023-04-25T10:31:29.605Z,49.09
2023-04-25T10:32:31.206Z,49.95
2023-04-25T10:33:29.570Z,49.47
2023-04-25T10:34:29.603Z,49.85
2023-04-25T10:35:29.643Z,49.38
2023-04-25T10:36:29.692Z,50.81
2023-04-25T10:37:29.709Z,50.62
2023-04-25T10:38:29.745Z,50.33
2023-04-25T10:39:29.786Z,50.71
2023-04-25T10:40:29.804Z,50.33
2023-04-25T10:41:29.878Z,50.52
2023-04-25T10:42:29.873Z,50.16
2023-04-25T10:43:29.896Z,50.74
2023-04-25T10:44:29.940Z,50.35
2023-04-25T10:45:29.966Z,50.74
2023-04-25T10:46:30.069Z,50.84
2023-04-25T10:47:30.050Z,49.98
2023-04-25T10:48:30.056Z,50.07
2023-04-25T10:49:30.106Z,50.55
2023-04-25T10:50:30.123Z,49.98
2023-04-25T10:51:37.170Z,50.35
2023-04-25T10:52:30.167Z,50.26
2023-04-25T10:53:30.225Z,49.49
2023-04-25T10:54:30.244Z,47.01
2023-04-25T10:55:30.269Z,46.25
2023-04-25T10:56:30.293Z,46.34
2023-04-25T10:57:30.328Z,46.34
2023-04-25T10:58:30.373Z,46.06
2023-04-25T10:59:30.402Z,46.15
2023-04-25T11:00:38.494Z,45.58
2023-04-25T11:01:30.485Z,45.67
2023-04-25T11:02:30.570Z,45.87
2023-04-25T11:03:30.681Z,46.25
2023-04-25T11:04:30.914Z,45.87
2023-04-25T11:05:30.580Z,46.15
2023-04-25T11:06:30.626Z,46.06
2023-04-25T11:07:30.654Z,46.06
2023-04-25T11:08:30.698Z,45.96
2023-04-25T11:09:30.730Z,46.42
2023-04-25T11:10:30.734Z,46.80
2023-04-25T11:11:30.783Z,47.75
2023-04-25T11:12:30.821Z,48.13
2023-04-25T11:13:30.850Z,48.13
2023-04-25T11:14:30.886Z,48.90
2023-04-25T11:15:30.908Z,48.80
2023-04-25T11:16:31.088Z,49.18
2023-04-25T11:17:31.093Z,48.59
2023-04-25T11:18:31.055Z,48.68
2023-04-25T11:19:31.060Z,48.68
2023-04-25T11:20:31.095Z,49.16
2023-04-25T11:21:31.146Z,48.78
2023-04-25T11:22:31.148Z,49.35
2023-04-25T11:23:31.183Z,49.26
2023-04-25T11:24:31.234Z,48.97
2023-04-25T11:25:31.253Z,48.78
2023-04-25T11:26:31.292Z,48.88
2023-04-25T11:27:38.503Z,47.92
2023-04-25T11:29:35.382Z,48.30
2023-04-25T11:30:35.400Z,48.88
2023-04-25T11:32:39.645Z,48.78
2023-04-25T11:33:39.493Z,48.68
2023-04-25T11:35:33.514Z,48.49
2023-04-25T11:36:33.512Z,48.39
2023-04-25T11:38:37.562Z,48.11
2023-04-25T11:39:37.586Z,48.68
2023-04-25T11:41:42.162Z,48.59
2023-04-25T11:42:41.654Z,48.52
2023-04-25T11:44:45.713Z,48.13
2023-04-25T11:45:45.827Z,46.80
2023-04-25T11:47:49.920Z,46.03
2023-04-25T11:48:50.066Z,46.20
2023-04-25T11:50:53.889Z,47.75
2023-04-25T11:51:53.886Z,48.04
2023-04-25T11:53:57.929Z,46.99
2023-04-25T11:54:58.015Z,47.47
2023-04-25T11:57:02.034Z,47.27
2023-04-25T11:58:02.864Z,47.56
2023-04-25T12:00:06.112Z,47.47
2023-04-25T12:01:06.136Z,47.56
2023-04-25T12:03:10.467Z,46.61
2023-04-25T12:04:10.488Z,46.70
2023-04-25T12:06:14.589Z,47.56
2023-04-25T12:07:14.289Z,46.61
2023-04-25T12:09:18.368Z,46.61
2023-04-25T12:10:18.378Z,46.70
2023-04-25T12:12:22.439Z,46.70
2023-04-25T12:13:22.445Z,47.47
2023-04-25T12:15:15.414Z,47.27
2023-04-25T12:16:15.538Z,47.75
2023-04-25T12:18:19.515Z,48.52
2023-04-25T12:19:19.526Z,48.42
2023-04-25T12:21:23.618Z,47.47
2023-04-25T12:22:23.654Z,47.47
2023-04-25T12:24:27.669Z,46.61
2023-04-25T12:25:27.675Z,47.08
2023-04-25T12:27:31.755Z,46.13
2023-04-25T12:28:31.789Z,46.03
2023-04-25T12:30:24.690Z,46.22
2023-04-25T12:31:24.762Z,45.08
2023-04-25T12:33:29.293Z,44.31
2023-04-25T12:34:29.289Z,44.12
2023-04-25T12:35:29.322Z,43.55
2023-04-25T12:36:29.351Z,43.74
2023-04-25T12:37:29.386Z,44.70
2023-04-25T12:38:29.414Z,44.98
2023-04-25T12:39:29.469Z,43.93
2023-04-25T12:40:29.486Z,44.70
2023-04-25T12:41:29.511Z,44.79
2023-04-25T12:42:29.544Z,44.79
2023-04-25T12:43:29.588Z,45.37
2023-04-25T12:44:29.605Z,45.46
2023-04-25T12:45:29.704Z,45.17
2023-04-25T12:46:29.711Z,45.08
2023-04-25T12:47:29.768Z,44.60
2023-04-25T12:48:29.755Z,44.89
2023-04-25T12:49:29.874Z,45.17
2023-04-25T12:50:29.796Z,45.46
2023-04-25T12:51:29.830Z,45.17
2023-04-25T12:52:29.862Z,45.65
2023-04-25T12:53:29.896Z,45.75
2023-04-25T12:54:29.921Z,45.94
2023-04-25T12:55:29.959Z,45.17
2023-04-25T12:56:30.002Z,46.03
2023-04-25T12:57:30.031Z,46.42
2023-04-25T12:58:30.052Z,46.03
2023-04-25T12:59:30.080Z,45.46
2023-04-25T13:00:30.146Z,45.94
2023-04-25T13:01:30.194Z,44.02
2023-04-25T13:02:30.242Z,42.97
2023-04-25T13:03:30.393Z,43.07
2023-04-25T13:04:30.436Z,43.36
2023-04-25T13:05:30.274Z,43.55
2023-04-25T13:06:30.311Z,44.02
2023-04-25T13:07:30.342Z,43.84
2023-04-25T13:08:30.368Z,42.79
2023-04-25T13:09:30.399Z,42.52
2023-04-25T13:10:30.432Z,42.33
2023-04-25T13:12:30.514Z,42.35
2023-04-25T13:13:30.531Z,42.16
2023-04-25T13:14:30.558Z,42.25
2023-04-25T13:15:30.591Z,41.97
2023-04-25T13:16:30.634Z,42.18
2023-04-25T13:17:30.665Z,42.27
2023-04-25T13:18:30.683Z,41.89
2023-04-25T13:19:30.720Z,41.41
2023-04-25T13:20:30.757Z,40.84